高雄國際航空站 - 塔台/地面席

METAR RCKH 141600Z 05002KT 8000 FEW012 20/16 Q1019 NOSIG RMK A3011(G)=

站台狀態:Online
最後更新:2019-12-15 00:00:02